Terminal Aerodrome Forecast
Issued by NWS Jackson, MS

Home | Current Version | Previous Version | Text Only | Print | Product List | Glossary On
Versions: 1 2 3 4 5 6 7 8 9 10 11 12 13 14 15 16
583
FTUS44 KJAN 010540
TAFGWO
TAF
KGWO 010540Z 0106/0206 18006KT P6SM BKN035
     FM010800 15005KT P6SM VCSH BKN015 OVC025
     FM011600 17007KT P6SM VCSH BKN040=

USA.gov is the U.S. government's official web portal to all federal, state and local government web resources and services.